Time;durP1;ratioP1;P1;durP2;ratioP2;P2;SDS_P1;SDS_P2;PMS_P1;PMS_P2;Temp;Humidity;BMP_temperature;BMP_pressure;BME280_temperature;BME280_humidity;BME280_pressure;Samples;Min_cycle;Max_cycle;Signal;HPM_P1;HPM_P2
2024/02/02 00:01:40;;;;;;;9.30;4.10;;;;;;;5.35;57.51;100226.10;108355;1262;62514;-60
2024/02/02 00:04:07;;;;;;;8.90;3.60;;;;;;;5.30;57.54;100227.45;108384;1257;59564;-59
2024/02/02 00:06:35;;;;;;;12.10;4.50;;;;;;;5.26;57.62;100230.65;104845;1262;59640;-58
2024/02/02 00:09:05;;;;;;;7.40;4.00;;;;;;;5.20;57.69;100230.15;104069;1262;62929;-59
2024/02/02 00:11:34;;;;;;;7.60;3.00;;;;;;;5.17;57.74;100229.46;108344;1257;60110;-58
2024/02/02 00:14:01;;;;;;;7.80;3.10;;;;;;;5.21;57.55;100225.02;108354;1259;62521;-60
2024/02/02 00:16:29;;;;;;;6.70;2.60;;;;;;;5.25;57.46;100226.71;108345;1257;58170;-59
2024/02/02 00:18:59;;;;;;;6.80;3.10;;;;;;;5.30;57.37;100223.63;108361;1261;57908;-59
2024/02/02 00:21:27;;;;;;;8.00;3.40;;;;;;;5.30;57.26;100216.27;108356;1261;66739;-60
2024/02/02 00:23:54;;;;;;;10.20;3.40;;;;;;;5.28;57.28;100212.96;104887;1262;61377;-59
2024/02/02 00:26:22;;;;;;;8.20;2.80;;;;;;;5.21;57.29;100214.70;104059;1262;66502;-60
2024/02/02 00:28:50;;;;;;;6.70;2.90;;;;;;;5.18;57.29;100216.52;104239;1260;59349;-62
2024/02/02 00:47:07;;;;;;;7.20;2.70;;;;;;;5.00;57.62;100213.04;104001;1259;59679;-56
2024/02/02 00:49:35;;;;;;;5.90;2.20;;;;;;;4.95;57.61;100210.20;103996;1257;61402;-58
2024/02/02 00:52:03;;;;;;;7.40;3.00;;;;;;;4.89;57.74;100208.83;103813;1263;62986;-59
2024/02/02 00:54:31;;;;;;;9.00;3.20;;;;;;;4.85;57.83;100203.66;108364;1258;61437;-57
2024/02/02 00:56:59;;;;;;;12.00;7.30;;;;;;;4.82;57.93;100197.60;108407;1262;64669;-58
2024/02/02 00:59:27;;;;;;;8.70;2.80;;;;;;;4.80;57.96;100201.73;108408;1257;58999;-57
2024/02/02 01:01:55;;;;;;;7.40;2.60;;;;;;;4.81;57.95;100196.77;108628;1257;58440;-59
2024/02/02 01:04:23;;;;;;;7.20;3.50;;;;;;;4.88;57.75;100193.44;108330;1259;63654;-59
2024/02/02 01:06:50;;;;;;;10.10;3.60;;;;;;;4.94;57.66;100202.09;108325;1262;60257;-58
2024/02/02 01:09:18;;;;;;;12.50;4.20;;;;;;;4.97;57.75;100202.43;108424;1258;62454;-59
2024/02/02 01:11:47;;;;;;;7.80;2.90;;;;;;;4.96;57.75;100201.80;108436;1261;59119;-59
2024/02/02 01:14:17;;;;;;;6.10;2.00;;;;;;;4.94;57.80;100199.02;108311;1258;59342;-58
2024/02/02 01:16:44;;;;;;;6.70;3.00;;;;;;;4.88;57.87;100201.06;108633;1255;66262;-58
2024/02/02 01:19:12;;;;;;;8.40;3.40;;;;;;;4.81;57.92;100200.08;106496;1258;63193;-60
2024/02/02 01:21:40;;;;;;;9.00;3.50;;;;;;;4.75;58.23;100208.77;104374;1254;64278;-61
2024/02/02 01:24:07;;;;;;;7.70;3.60;;;;;;;4.68;58.47;100205.05;104226;1258;60463;-59
2024/02/02 01:26:35;;;;;;;9.10;3.90;;;;;;;4.69;58.46;100207.80;104252;1260;60448;-58
2024/02/02 01:29:03;;;;;;;7.70;3.00;;;;;;;4.72;58.39;100206.38;108651;1254;65621;-60
2024/02/02 01:31:31;;;;;;;8.10;2.40;;;;;;;4.75;58.26;100208.98;105057;1258;60210;-58
2024/02/02 01:33:58;;;;;;;8.40;2.80;;;;;;;4.74;58.28;100208.30;108618;1254;62488;-59
2024/02/02 01:36:27;;;;;;;10.30;5.90;;;;;;;4.72;58.43;100209.50;108604;1254;58921;-58
2024/02/02 01:38:55;;;;;;;5.60;2.00;;;;;;;4.69;58.53;100211.23;104316;1259;60508;-61
2024/02/02 01:41:22;;;;;;;7.80;3.00;;;;;;;4.64;58.65;100212.22;104111;1265;66188;-59
2024/02/02 01:43:50;;;;;;;6.10;2.70;;;;;;;4.57;58.79;100207.75;104211;1260;61370;-60
2024/02/02 01:46:18;;;;;;;6.80;3.10;;;;;;;4.52;58.88;100202.81;105141;1260;62437;-59
2024/02/02 01:48:45;;;;;;;5.50;2.60;;;;;;;4.47;58.99;100205.52;104201;1259;60488;-60
2024/02/02 01:51:13;;;;;;;11.60;2.80;;;;;;;4.41;59.21;100211.27;104132;1256;61259;-58
2024/02/02 01:53:42;;;;;;;11.30;3.00;;;;;;;4.40;59.34;100220.21;104336;1256;65002;-58
2024/02/02 01:56:10;;;;;;;4.40;1.90;;;;;;;4.45;59.23;100220.04;104582;1260;60632;-57
2024/02/02 01:58:38;;;;;;;11.30;2.90;;;;;;;4.51;59.10;100219.21;104278;1256;62497;-58
2024/02/02 02:01:05;;;;;;;6.30;2.70;;;;;;;4.55;58.99;100224.35;104186;1257;61959;-59
2024/02/02 02:03:33;;;;;;;5.90;2.60;;;;;;;4.57;58.97;100221.81;104498;1259;60529;-58
2024/02/02 02:06:01;;;;;;;7.80;3.20;;;;;;;4.55;59.01;100221.96;104964;1259;63704;-57
2024/02/02 02:08:29;;;;;;;5.40;2.10;;;;;;;4.50;59.00;100216.13;104218;1259;61362;-59
2024/02/02 02:10:57;;;;;;;13.40;6.30;;;;;;;4.46;59.10;100217.06;104182;1254;63735;-60
2024/02/02 02:13:27;;;;;;;9.60;2.40;;;;;;;4.41;59.28;100223.26;104228;1255;60437;-60
2024/02/02 02:15:55;;;;;;;5.80;1.90;;;;;;;4.38;59.33;100225.17;104158;1259;60416;-59
2024/02/02 02:18:23;;;;;;;8.00;2.20;;;;;;;4.36;59.31;100228.77;104195;1253;65283;-59
2024/02/02 02:20:52;;;;;;;5.50;2.10;;;;;;;4.41;59.33;100227.42;104213;1258;60408;-60
2024/02/02 02:23:20;;;;;;;5.50;2.20;;;;;;;4.51;59.05;100230.68;104077;1260;62470;-61
2024/02/02 02:25:48;;;;;;;6.00;2.20;;;;;;;4.61;58.85;100230.09;108671;1254;61441;-59
2024/02/02 02:28:15;;;;;;;5.00;1.80;;;;;;;4.72;58.63;100234.36;108663;1258;59775;-60
2024/02/02 02:30:46;;;;;;;6.80;2.20;;;;;;;4.75;58.47;100237.11;108646;1254;64894;-60
2024/02/02 02:33:14;;;;;;;7.00;2.50;;;;;;;4.78;58.30;100236.42;108623;1254;61381;-58
2024/02/02 02:35:42;;;;;;;6.60;2.80;;;;;;;4.79;58.26;100232.23;108647;1254;62465;-57
2024/02/02 02:38:09;;;;;;;6.60;2.00;;;;;;;4.80;58.18;100231.46;108651;1254;59137;-57
2024/02/02 02:40:37;;;;;;;6.60;2.40;;;;;;;4.79;58.12;100232.02;108405;1254;60144;-58
2024/02/02 02:43:05;;;;;;;8.40;2.70;;;;;;;4.80;57.99;100232.96;108646;1254;63747;-57
2024/02/02 02:45:32;;;;;;;7.80;2.70;;;;;;;4.83;57.96;100238.20;108668;1254;61384;-56
2024/02/02 02:48:00;;;;;;;8.90;2.70;;;;;;;4.85;57.84;100237.20;108566;1260;64133;-56
2024/02/02 02:50:28;;;;;;;8.10;2.70;;;;;;;4.90;57.60;100232.92;108658;1254;61688;-59
2024/02/02 02:52:55;;;;;;;7.00;2.00;;;;;;;5.01;57.26;100234.20;108785;1255;58770;-57
2024/02/02 02:55:23;;;;;;;6.00;1.80;;;;;;;5.10;57.05;100226.56;108616;1259;72750;-56
2024/02/02 02:57:53;;;;;;;5.60;2.00;;;;;;;5.15;56.80;100230.08;107487;1255;61843;-55
2024/02/02 03:00:27;;;;;;;5.50;2.10;;;;;;;5.17;56.66;100232.71;108624;1254;62605;-58
2024/02/02 03:02:55;;;;;;;6.20;2.60;;;;;;;5.16;56.52;100236.80;108790;1254;60989;-55
2024/02/02 03:05:25;;;;;;;4.90;1.90;;;;;;;5.11;56.57;100240.71;108653;1254;58363;-55
2024/02/02 03:07:53;;;;;;;8.90;2.60;;;;;;;5.07;56.58;100237.51;108687;1254;63710;-57
2024/02/02 03:10:25;;;;;;;8.50;2.90;;;;;;;5.07;56.56;100239.61;108682;1254;61506;-57
2024/02/02 03:12:53;;;;;;;6.30;2.00;;;;;;;5.06;56.60;100239.81;106006;1258;62420;-57
2024/02/02 03:15:21;;;;;;;8.00;3.20;;;;;;;5.05;56.55;100237.79;104204;1254;59690;-59
2024/02/02 03:17:48;;;;;;;6.60;2.20;;;;;;;5.04;56.54;100242.71;108670;1253;58677;-59
2024/02/02 03:20:16;;;;;;;7.60;2.80;;;;;;;5.03;56.57;100247.63;107267;1257;67380;-57
2024/02/02 03:22:44;;;;;;;17.80;6.80;;;;;;;5.09;56.47;100253.56;108635;1254;62421;-58
2024/02/02 03:25:12;;;;;;;10.50;2.70;;;;;;;5.17;56.40;100253.74;108721;1257;62534;-59
2024/02/02 03:27:39;;;;;;;11.50;4.60;;;;;;;5.26;56.23;100256.73;106403;1254;62547;-58
2024/02/02 03:30:09;;;;;;;17.00;7.50;;;;;;;5.32;56.11;100253.41;108555;1254;59487;-57
2024/02/02 03:32:37;;;;;;;19.00;9.30;;;;;;;5.35;56.02;100250.45;105550;1254;64233;-58
2024/02/02 03:35:06;;;;;;;17.80;7.90;;;;;;;5.34;55.94;100250.63;107476;1254;62371;-60
2024/02/02 03:37:34;;;;;;;11.10;3.10;;;;;;;5.30;56.00;100252.34;108756;1254;65685;-61
2024/02/02 03:40:04;;;;;;;5.60;2.00;;;;;;;5.22;56.04;100253.67;106809;1254;60557;-59
2024/02/02 03:42:31;;;;;;;5.90;3.40;;;;;;;5.16;56.14;100250.84;106947;1253;60486;-59
2024/02/02 03:44:59;;;;;;;6.70;2.20;;;;;;;5.10;56.32;100257.34;104218;1260;65739;-61
2024/02/02 03:47:27;;;;;;;5.30;2.40;;;;;;;5.04;56.39;100258.38;104184;1254;60459;-59
2024/02/02 03:49:55;;;;;;;8.70;2.30;;;;;;;4.97;56.63;100260.87;104205;1253;62987;-59
2024/02/02 03:52:23;;;;;;;9.10;2.30;;;;;;;4.97;56.70;100257.55;104207;1260;61363;-63
2024/02/02 03:54:51;;;;;;;6.80;2.20;;;;;;;5.00;56.64;100257.91;108651;1254;60318;-60
2024/02/02 03:57:19;;;;;;;9.70;2.50;;;;;;;5.04;56.56;100261.17;108116;1259;64964;-57
2024/02/02 03:59:47;;;;;;;6.40;2.30;;;;;;;5.03;56.57;100270.25;104506;1257;60524;-58
2024/02/02 04:02:14;;;;;;;5.90;2.00;;;;;;;5.00;56.59;100274.24;104219;1255;63690;-59
2024/02/02 04:04:42;;;;;;;8.50;3.30;;;;;;;4.95;56.66;100273.98;104196;1255;60607;-59
2024/02/02 04:07:10;;;;;;;9.20;3.00;;;;;;;4.90;56.72;100276.41;105552;1254;59620;-59
2024/02/02 04:09:38;;;;;;;7.40;2.80;;;;;;;4.84;56.78;100284.90;108537;1254;63716;-60
2024/02/02 04:12:06;;;;;;;6.00;2.20;;;;;;;4.80;56.85;100287.58;106620;1258;61041;-58
2024/02/02 04:14:35;;;;;;;6.80;3.40;;;;;;;4.76;56.86;100284.32;108694;1254;73072;-58
2024/02/02 04:17:02;;;;;;;8.30;2.40;;;;;;;4.73;56.84;100285.53;108729;1254;59096;-57
2024/02/02 04:19:30;;;;;;;6.10;3.00;;;;;;;4.71;56.86;100292.10;105944;1254;60482;-58
2024/02/02 04:21:58;;;;;;;7.80;3.10;;;;;;;4.72;56.87;100294.48;104362;1254;63711;-59
2024/02/02 04:24:26;;;;;;;23.40;8.80;;;;;;;4.76;56.80;100299.77;104384;1254;62414;-59
2024/02/02 04:26:53;;;;;;;21.30;9.60;;;;;;;4.80;56.75;100304.42;104262;1254;62515;-59
2024/02/02 04:29:21;;;;;;;16.60;6.00;;;;;;;4.85;56.69;100304.50;104275;1254;60559;-61
2024/02/02 04:31:49;;;;;;;14.40;5.80;;;;;;;4.84;56.53;100306.44;104499;1253;61330;-57
2024/02/02 04:34:16;;;;;;;10.60;3.90;;;;;;;4.83;56.44;100312.23;106297;1254;65116;-59
2024/02/02 04:36:44;;;;;;;9.00;3.70;;;;;;;4.80;56.48;100313.13;104355;1254;60460;-59
2024/02/02 04:39:12;;;;;;;11.30;4.80;;;;;;;4.73;56.45;100318.77;104379;1254;63781;-60
2024/02/02 04:41:40;;;;;;;8.10;3.10;;;;;;;4.65;56.55;100322.80;104781;1254;60469;-57
2024/02/02 04:44:08;;;;;;;8.60;3.00;;;;;;;4.60;56.51;100324.85;104443;1258;60351;-58
2024/02/02 04:46:35;;;;;;;6.80;2.60;;;;;;;4.53;56.51;100327.33;104538;1257;67749;-57
2024/02/02 04:49:03;;;;;;;8.20;2.40;;;;;;;4.50;56.50;100330.65;104625;1254;62286;-58
2024/02/02 04:52:13;;;;;;;6.90;2.80;;;;;;;4.41;56.48;100341.02;104464;1254;71597;-60
2024/02/02 04:54:58;;;;;;;5.80;2.00;;;;;;;4.42;56.37;100341.50;104312;1260;60566;-59
2024/02/02 04:57:26;;;;;;;7.10;1.80;;;;;;;4.48;56.13;100344.09;106984;1256;62632;-58
2024/02/02 04:59:54;;;;;;;7.10;1.70;;;;;;;4.55;55.75;100345.48;104349;1254;63686;-54
2024/02/02 05:02:22;;;;;;;6.00;1.70;;;;;;;4.59;55.51;100348.67;106568;1254;61314;-58
2024/02/02 05:04:50;;;;;;;6.10;1.40;;;;;;;4.61;55.20;100351.89;104393;1254;62499;-61
2024/02/02 05:07:18;;;;;;;8.90;1.90;;;;;;;4.60;54.71;100354.35;108609;1254;58847;-60
2024/02/02 05:09:45;;;;;;;5.80;1.40;;;;;;;4.58;54.44;100356.55;108785;1254;58699;-61
2024/02/02 05:12:15;;;;;;;4.50;1.30;;;;;;;4.58;54.41;100357.99;108437;1253;63773;-59
2024/02/02 05:14:43;;;;;;;6.00;1.50;;;;;;;4.56;54.24;100363.27;106368;1254;60820;-59
2024/02/02 05:17:11;;;;;;;6.50;1.40;;;;;;;4.53;54.12;100367.77;104231;1257;63781;-60
2024/02/02 05:19:39;;;;;;;5.10;1.80;;;;;;;4.51;53.92;100371.39;104233;1258;60557;-60
2024/02/02 05:22:08;;;;;;;6.00;1.10;;;;;;;4.48;53.90;100371.88;107637;1258;58631;-57
2024/02/02 05:24:35;;;;;;;4.90;1.20;;;;;;;4.46;53.85;100372.57;104408;1254;64069;-58
2024/02/02 05:27:12;;;;;;;7.30;1.30;;;;;;;4.43;53.85;100375.48;104298;1258;60429;-59
2024/02/02 05:29:42;;;;;;;5.30;1.20;;;;;;;4.37;53.84;100380.46;108718;1253;62544;-58
2024/02/02 05:32:10;;;;;;;8.00;2.40;;;;;;;4.34;53.65;100383.96;108669;1254;58923;-58
2024/02/02 05:34:37;;;;;;;4.90;1.70;;;;;;;4.35;53.39;100384.77;108722;1253;59907;-59
2024/02/02 05:37:05;;;;;;;5.70;1.40;;;;;;;4.43;53.07;100391.60;108642;1253;65442;-59
2024/02/02 05:39:33;;;;;;;10.00;1.80;;;;;;;4.53;52.80;100400.48;106131;1254;63739;-58
2024/02/02 05:42:01;;;;;;;3.70;1.10;;;;;;;4.59;52.62;100406.55;104498;1259;62661;-56
2024/02/02 05:44:29;;;;;;;5.40;0.80;;;;;;;4.61;52.59;100411.83;104469;1253;60447;-56
2024/02/02 05:46:56;;;;;;;12.50;4.20;;;;;;;4.61;52.39;100418.48;104473;1254;60480;-58
2024/02/02 05:49:24;;;;;;;4.60;1.10;;;;;;;4.59;52.21;100421.48;104263;1253;63749;-58
2024/02/02 05:51:52;;;;;;;4.90;1.80;;;;;;;4.56;51.97;100427.07;104203;1254;60568;-57
2024/02/02 05:54:20;;;;;;;7.40;1.00;;;;;;;4.52;51.82;100430.02;108612;1258;62519;-56
2024/02/02 05:56:48;;;;;;;4.00;1.30;;;;;;;4.50;51.93;100430.34;108683;1254;60755;-58
2024/02/02 05:59:16;;;;;;;5.00;1.70;;;;;;;4.49;51.87;100434.76;108889;1253;58973;-59
2024/02/02 06:01:43;;;;;;;4.90;0.90;;;;;;;4.49;51.77;100441.86;108626;1255;67477;-58
2024/02/02 06:04:11;;;;;;;4.20;1.40;;;;;;;4.51;51.76;100435.85;108644;1254;61436;-58
2024/02/02 06:06:39;;;;;;;17.00;6.10;;;;;;;4.55;51.79;100434.42;108601;1254;62464;-56
2024/02/02 06:09:09;;;;;;;15.40;5.20;;;;;;;4.58;51.70;100434.42;108642;1256;60776;-58
2024/02/02 06:11:37;;;;;;;9.20;3.00;;;;;;;4.61;51.69;100437.70;108713;1254;59239;-57
2024/02/02 06:14:05;;;;;;;7.10;1.40;;;;;;;4.63;51.50;100440.20;108647;1253;65021;-60
2024/02/02 06:16:32;;;;;;;7.80;2.90;;;;;;;4.62;51.22;100446.88;108621;1259;61294;-58
2024/02/02 06:19:00;;;;;;;6.50;1.80;;;;;;;4.64;51.26;100447.81;108607;1253;63763;-59
2024/02/02 06:21:29;;;;;;;8.50;2.40;;;;;;;4.65;51.21;100455.03;104270;1255;60485;-62
2024/02/02 06:23:58;;;;;;;4.40;1.30;;;;;;;4.68;51.26;100454.73;104707;1253;60451;-58
2024/02/02 06:26:28;;;;;;;7.60;2.10;;;;;;;4.69;51.00;100457.98;108615;1253;74213;-60
2024/02/02 06:29:00;;;;;;;3.00;1.10;;;;;;;4.71;50.96;100460.11;108609;1253;61840;-59
2024/02/02 06:31:31;;;;;;;4.70;2.10;;;;;;;4.74;50.81;100464.12;104654;1254;63912;-57
2024/02/02 06:34:00;;;;;;;4.10;1.60;;;;;;;4.77;50.67;100463.80;105405;1256;60656;-61
2024/02/02 06:36:29;;;;;;;5.70;1.80;;;;;;;4.79;50.63;100465.24;104509;1254;60293;-63
2024/02/02 06:38:58;;;;;;;10.50;2.10;;;;;;;4.84;50.59;100468.45;108650;1253;73999;-61
2024/02/02 06:41:26;;;;;;;6.10;1.50;;;;;;;4.89;50.57;100469.89;108727;1258;61965;-62
2024/02/02 06:43:54;;;;;;;4.40;1.00;;;;;;;4.93;50.50;100473.68;108555;1259;66488;-62
2024/02/02 06:46:21;;;;;;;11.50;3.90;;;;;;;4.94;50.45;100477.09;108738;1253;60523;-60
2024/02/02 06:48:49;;;;;;;7.50;1.40;;;;;;;4.95;50.36;100473.41;108673;1253;58297;-60
2024/02/02 06:51:17;;;;;;;6.60;2.60;;;;;;;4.95;50.37;100471.30;108647;1253;68125;-60
2024/02/02 06:53:44;;;;;;;5.90;1.40;;;;;;;4.96;50.25;100475.27;107350;1253;60527;-60
2024/02/02 06:56:35;;;;;;;4.60;1.00;;;;;;;4.94;50.09;100478.52;104026;1254;63720;-59
2024/02/02 06:59:04;;;;;;;4.10;1.20;;;;;;;4.94;50.25;100478.31;108640;1253;58469;-60
2024/02/02 07:01:32;;;;;;;5.60;1.00;;;;;;;4.97;50.25;100479.22;108454;1258;60848;-59
2024/02/02 07:04:02;;;;;;;7.60;2.10;;;;;;;5.00;50.22;100479.76;104696;1253;63702;-61
2024/02/02 07:06:34;;;;;;;4.80;1.10;;;;;;;5.01;50.09;100490.10;108689;1253;61358;-61
2024/02/02 07:09:21;;;;;;;8.30;3.00;;;;;;;5.02;50.04;100490.07;108671;1253;66818;-62
2024/02/02 07:11:49;;;;;;;9.10;1.90;;;;;;;5.04;49.99;100483.52;108553;1254;59873;-60
2024/02/02 07:14:29;;;;;;;3.80;1.40;;;;;;;5.09;49.82;100485.54;108679;1253;59585;-67
2024/02/02 07:16:56;;;;;;;5.10;1.90;;;;;;;5.15;49.61;100491.25;108405;1253;67313;-60
2024/02/02 07:19:55;;;;;;;3.80;1.40;;;;;;;5.19;49.48;100490.15;104110;1254;61466;-61
2024/02/02 07:22:36;;;;;;;7.00;1.80;;;;;;;5.21;49.62;100489.19;104032;1254;62544;-59
2024/02/02 07:25:08;;;;;;;6.00;2.00;;;;;;;5.23;49.62;100488.77;108567;1253;59186;-61
2024/02/02 07:27:51;;;;;;;5.30;1.50;;;;;;;5.25;49.71;100488.08;108650;1253;58735;-61
2024/02/02 07:30:44;;;;;;;6.90;1.30;;;;;;;5.32;49.60;100488.04;108643;1253;63701;-58
2024/02/02 07:33:33;;;;;;;3.70;1.30;;;;;;;5.42;49.53;100492.53;108670;1255;72089;-60
2024/02/02 07:36:01;;;;;;;5.00;1.80;;;;;;;5.44;49.30;100495.23;108646;1254;66986;-60
2024/02/02 07:38:53;;;;;;;9.20;1.50;;;;;;;5.44;49.24;100491.73;108640;1254;58591;-58
2024/02/02 07:41:28;;;;;;;6.10;1.90;;;;;;;5.48;49.35;100500.06;108669;1253;59725;-56
2024/02/02 07:43:59;;;;;;;6.70;1.60;;;;;;;5.49;49.43;100501.87;108684;1256;76075;-57
2024/02/02 07:46:27;;;;;;;7.30;2.20;;;;;;;5.52;49.57;100500.85;108681;1253;60258;-62
2024/02/02 07:48:55;;;;;;;9.50;2.70;;;;;;;5.56;49.61;100504.64;108663;1254;64101;-54
2024/02/02 07:51:24;;;;;;;8.20;1.60;;;;;;;5.58;49.56;100505.91;108709;1255;61324;-57
2024/02/02 07:53:53;;;;;;;7.70;1.50;;;;;;;5.61;49.41;100505.04;108638;1253;58949;-56
2024/02/02 07:56:22;;;;;;;8.00;1.40;;;;;;;5.63;49.52;100507.23;106074;1253;63635;-58
2024/02/02 07:58:50;;;;;;;4.70;1.40;;;;;;;5.65;49.58;100507.08;104283;1253;60429;-56
2024/02/02 08:01:18;;;;;;;9.50;3.60;;;;;;;5.76;49.44;100505.05;104681;1253;73911;-60
2024/02/02 08:03:46;;;;;;;10.30;2.10;;;;;;;5.74;49.55;100514.36;104345;1253;61071;-59
2024/02/02 08:06:14;;;;;;;8.50;2.60;;;;;;;5.72;49.58;100512.39;108659;1254;60277;-60
2024/02/02 08:08:42;;;;;;;8.60;2.10;;;;;;;5.72;49.52;100515.88;108721;1253;64469;-60
2024/02/02 08:11:09;;;;;;;5.60;1.70;;;;;;;5.75;49.50;100521.66;106658;1257;62390;-60
2024/02/02 08:13:37;;;;;;;5.70;1.20;;;;;;;5.80;49.20;100516.11;104149;1255;62545;-59
2024/02/02 08:16:05;;;;;;;4.40;1.60;;;;;;;5.79;49.01;100512.03;106628;1254;60564;-53
2024/02/02 08:18:33;;;;;;;7.50;1.70;;;;;;;5.75;49.14;100513.12;108672;1253;58663;-54
2024/02/02 08:21:02;;;;;;;7.10;2.20;;;;;;;5.74;49.19;100516.11;108663;1253;72677;-59
2024/02/02 08:23:30;;;;;;;8.80;1.60;;;;;;;5.73;48.99;100518.98;106705;1254;62207;-64
2024/02/02 08:25:58;;;;;;;4.00;1.20;;;;;;;5.73;49.06;100521.09;104199;1258;62498;-61
2024/02/02 08:28:25;;;;;;;4.90;1.60;;;;;;;5.73;49.08;100519.50;104247;1253;61991;-66
2024/02/02 08:30:54;;;;;;;4.50;1.90;;;;;;;5.78;48.92;100523.40;108677;1253;60114;-65
2024/02/02 08:33:22;;;;;;;6.20;1.70;;;;;;;5.84;48.58;100521.14;108686;1254;63684;-62
2024/02/02 08:35:53;;;;;;;9.00;3.80;;;;;;;5.90;48.46;100526.69;107111;1256;63508;-61
2024/02/02 08:38:20;;;;;;;10.50;2.20;;;;;;;5.95;47.83;100522.23;105283;1254;71698;-60
2024/02/02 08:40:49;;;;;;;5.10;1.50;;;;;;;6.02;47.75;100519.92;104470;1253;61026;-58
2024/02/02 08:43:22;;;;;;;4.30;1.70;;;;;;;6.08;47.36;100517.33;104038;1253;59918;-57
2024/02/02 08:46:02;;;;;;;5.20;1.30;;;;;;;6.11;46.99;100516.77;108690;1253;63615;-61
2024/02/02 08:48:37;;;;;;;4.50;1.30;;;;;;;6.16;46.87;100522.25;108662;1253;61990;-60
2024/02/02 08:51:23;;;;;;;6.80;1.20;;;;;;;6.22;46.76;100518.76;108692;1256;66963;-58
2024/02/02 08:53:57;;;;;;;7.00;1.70;;;;;;;6.31;46.22;100519.45;108680;1253;60697;-56
2024/02/02 08:56:25;;;;;;;5.80;1.40;;;;;;;6.40;45.63;100520.81;108498;1253;329448;-60
2024/02/02 09:10:43;;;;;;;9.70;1.60;;;;;;;6.32;44.91;100519.30;101931;1288;605751;-57
2024/02/02 09:13:14;;;;;;;4.60;1.20;;;;;;;6.76;43.56;100519.86;103226;1267;75810;-59
2024/02/02 09:15:42;;;;;;;9.50;3.30;;;;;;;6.68;43.61;100531.80;107950;1267;61777;-60
2024/02/02 09:18:12;;;;;;;5.80;1.20;;;;;;;6.63;43.84;100527.46;107909;1267;63298;-57
2024/02/02 09:20:58;;;;;;;7.70;0.90;;;;;;;6.58;44.12;100526.38;107824;1267;72628;-58
2024/02/02 09:23:27;;;;;;;4.80;1.20;;;;;;;6.57;44.34;100525.36;107880;1267;74818;-60
2024/02/02 09:25:54;;;;;;;10.00;2.40;;;;;;;6.57;44.44;100528.33;107879;1267;58306;-58
2024/02/02 09:28:25;;;;;;;4.60;1.80;;;;;;;6.56;44.44;100525.41;107903;1266;59676;-60
2024/02/02 09:30:56;;;;;;;8.60;2.60;;;;;;;6.57;44.56;100522.41;107953;1267;67475;-57
2024/02/02 09:33:30;;;;;;;5.90;1.20;;;;;;;6.58;44.71;100515.89;107875;1267;73135;-59
2024/02/02 09:35:59;;;;;;;5.30;1.10;;;;;;;6.61;44.53;100515.02;107933;1267;64363;-58
2024/02/02 09:38:27;;;;;;;6.30;2.30;;;;;;;6.61;43.82;100515.70;107832;1265;58167;-58
2024/02/02 09:41:01;;;;;;;5.10;1.20;;;;;;;6.56;43.62;100508.52;106732;1266;59692;-54
2024/02/02 09:43:50;;;;;;;3.40;1.70;;;;;;;6.52;43.44;100515.73;107910;1267;64857;-57
2024/02/02 09:46:30;;;;;;;4.70;0.90;;;;;;;6.49;43.42;100513.45;107858;1267;60334;-56
2024/02/02 09:49:01;;;;;;;5.50;1.50;;;;;;;6.49;43.91;100514.91;107857;1267;75783;-58
2024/02/02 09:51:58;;;;;;;3.50;1.00;;;;;;;6.50;44.11;100512.90;107899;1267;59695;-58
2024/02/02 09:54:28;;;;;;;;;;;;;;;6.55;44.00;100519.08;107222;1267;59045;-58
2024/02/02 09:56:58;;;;;;;7.50;1.90;;;;;;;6.56;43.88;100520.55;103605;1271;64397;-61
2024/02/02 09:59:32;;;;;;;3.40;0.50;;;;;;;6.54;43.86;100522.08;103501;1267;62028;-58
2024/02/02 10:02:31;;;;;;;3.30;1.00;;;;;;;6.47;44.03;100528.93;107827;1266;77236;-59
2024/02/02 10:05:08;;;;;;;6.50;2.10;;;;;;;6.46;44.33;100524.45;105610;1272;59698;-57
2024/02/02 10:07:47;;;;;;;4.10;1.50;;;;;;;6.49;44.27;100525.52;103383;1267;59626;-62
2024/02/02 10:10:36;;;;;;;6.90;1.10;;;;;;;6.47;44.49;100530.13;103316;1268;63112;-60
2024/02/02 10:13:29;;;;;;;9.10;2.70;;;;;;;6.48;44.52;100532.70;107845;1267;63943;-63
2024/02/02 10:16:26;;;;;;;8.70;2.50;;;;;;;6.47;43.69;100526.16;107854;1267;62574;-61
2024/02/02 10:19:32;;;;;;;4.20;1.20;;;;;;;6.54;43.33;100532.55;107878;1266;58038;-63
2024/02/02 10:22:02;;;;;;;2.10;0.60;;;;;;;6.59;43.30;100532.19;107871;1267;59149;-60
2024/02/02 10:24:36;;;;;;;6.30;1.70;;;;;;;6.69;43.19;100530.73;107861;1266;75320;-60
2024/02/02 10:27:14;;;;;;;7.80;1.10;;;;;;;6.79;43.18;100528.18;107900;1267;63721;-59
2024/02/02 10:29:49;;;;;;;4.10;1.00;;;;;;;6.92;42.78;100533.30;105807;1266;77252;-60
2024/02/02 10:32:22;;;;;;;5.40;1.20;;;;;;;7.01;42.22;100534.86;103360;1271;63591;-59
2024/02/02 10:34:59;;;;;;;4.80;1.10;;;;;;;7.01;41.92;100534.33;107866;1267;62207;-60
2024/02/02 10:37:33;;;;;;;8.30;1.80;;;;;;;7.03;42.09;100535.29;104013;1267;75270;-59
2024/02/02 10:40:06;;;;;;;5.30;1.00;;;;;;;7.04;42.26;100538.53;107871;1267;63445;-59
2024/02/02 10:42:59;;;;;;;7.30;2.10;;;;;;;7.04;41.90;100541.16;107922;1267;66516;-60
2024/02/02 10:45:36;;;;;;;6.20;0.90;;;;;;;7.01;41.11;100542.90;107890;1267;59851;-62
2024/02/02 10:48:26;;;;;;;4.50;0.50;;;;;;;7.01;41.10;100542.54;107877;1266;58001;-61
2024/02/02 10:51:07;;;;;;;3.80;1.00;;;;;;;7.02;41.13;100541.44;107316;1267;68218;-59
2024/02/02 10:54:07;;;;;;;13.40;2.50;;;;;;;7.05;41.28;100535.32;107898;1267;75083;-60
2024/02/02 10:57:14;;;;;;;3.10;1.50;;;;;;;7.10;41.40;100541.98;107654;1267;73450;-59
2024/02/02 11:00:10;;;;;;;10.70;2.60;;;;;;;7.12;41.22;100540.84;106406;1267;60197;-59
2024/02/02 11:02:53;;;;;;;4.80;0.70;;;;;;;7.08;41.17;100545.77;107611;1266;57796;-59
2024/02/02 11:05:32;;;;;;;4.00;1.20;;;;;;;7.07;41.01;100548.27;103377;1267;66099;-59
2024/02/02 11:08:01;;;;;;;4.60;1.00;;;;;;;7.02;40.87;100558.70;107953;1265;66778;-59
2024/02/02 11:10:36;;;;;;;7.90;2.40;;;;;;;6.93;40.56;100556.83;107111;1266;62437;-58
2024/02/02 11:13:10;;;;;;;5.00;1.40;;;;;;;6.91;40.21;100551.70;103479;1267;61810;-60
2024/02/02 11:16:22;;;;;;;3.40;0.60;;;;;;;6.97;39.81;100550.33;107882;1267;59170;-60
2024/02/02 11:19:09;;;;;;;1.90;0.50;;;;;;;7.06;39.64;100552.18;104386;1266;65898;-64
2024/02/02 11:21:55;;;;;;;11.10;2.60;;;;;;;7.11;39.79;100556.77;103410;1267;65911;-62
2024/02/02 11:24:27;;;;;;;6.50;1.20;;;;;;;7.15;39.84;100554.38;103415;1269;74916;-60
2024/02/02 11:27:19;;;;;;;2.80;0.50;;;;;;;7.15;39.59;100556.83;107889;1267;59240;-63
2024/02/02 11:29:59;;;;;;;7.30;2.50;;;;;;;7.19;39.71;100560.04;105530;1267;59653;-63
2024/02/02 11:32:39;;;;;;;4.80;0.90;;;;;;;7.23;39.53;100556.67;103623;1273;75376;-59
2024/02/02 11:35:35;;;;;;;4.10;0.90;;;;;;;7.27;39.40;100555.22;105859;1266;64001;-62
2024/02/02 11:38:24;;;;;;;2.70;0.40;;;;;;;7.31;39.32;100557.80;107916;1267;62559;-62
2024/02/02 11:40:52;;;;;;;4.20;0.70;;;;;;;7.36;38.93;100552.41;106233;1267;60060;-58
2024/02/02 11:43:20;;;;;;;6.30;2.00;;;;;;;7.42;38.77;100550.27;103482;1267;59695;-60
2024/02/02 11:45:48;;;;;;;4.50;1.10;;;;;;;7.41;38.84;100544.53;107249;1270;73034;-58
2024/02/02 11:48:24;;;;;;;3.70;1.00;;;;;;;7.31;38.46;100542.77;104828;1263;63890;-58
2024/02/02 11:50:52;;;;;;;8.40;2.30;;;;;;;7.24;38.50;100543.90;103408;1266;77846;-60
2024/02/02 11:54:02;;;;;;;3.30;1.00;;;;;;;7.22;38.84;100548.02;103483;1264;61493;-59
2024/02/02 11:56:38;;;;;;;2.70;0.80;;;;;;;7.24;38.60;100550.33;105380;1263;59280;-59
2024/02/02 11:59:09;;;;;;;3.80;0.80;;;;;;;7.27;38.19;100556.79;105122;1264;64632;-58
2024/02/02 12:01:56;;;;;;;2.30;0.70;;;;;;;7.30;38.09;100559.06;104905;1263;61534;-58
2024/02/02 12:04:34;;;;;;;2.70;0.60;;;;;;;7.38;38.37;100561.33;108181;1263;62766;-54
2024/02/02 12:07:14;;;;;;;2.20;0.50;;;;;;;7.47;38.30;100560.90;106399;1263;60745;-61
2024/02/02 12:09:46;;;;;;;5.20;1.90;;;;;;;7.52;38.42;100560.08;103890;1269;59744;-58
2024/02/02 12:12:28;;;;;;;4.70;0.90;;;;;;;7.53;38.30;100565.41;108153;1263;72192;-60
2024/02/02 12:14:56;;;;;;;4.30;0.70;;;;;;;7.54;38.48;100564.13;108080;1264;71809;-56